sensor_id;sensor_type;location;lat;lon;timestamp;P1;durP1;ratioP1;P2;durP2;ratioP2
6561;SDS011;3314;50.890;4.722;2024-01-30T00:00:52;10.6;;;3.4;;
6561;SDS011;3314;50.890;4.722;2024-01-30T00:02:52;11.0;;;3.9;;
6561;SDS011;3314;50.890;4.722;2024-01-30T00:04:51;12.7;;;3.4;;
6561;SDS011;3314;50.890;4.722;2024-01-30T00:06:51;11.3;;;2.8;;
6561;SDS011;3314;50.890;4.722;2024-01-30T00:08:51;10.8;;;4.0;;
6561;SDS011;3314;50.890;4.722;2024-01-30T00:10:51;10.1;;;3.8;;
6561;SDS011;3314;50.890;4.722;2024-01-30T00:12:50;10.2;;;3.1;;
6561;SDS011;3314;50.890;4.722;2024-01-30T00:14:50;13.7;;;3.5;;
6561;SDS011;3314;50.890;4.722;2024-01-30T00:16:50;10.4;;;3.1;;
6561;SDS011;3314;50.890;4.722;2024-01-30T00:18:51;13.9;;;3.5;;
6561;SDS011;3314;50.890;4.722;2024-01-30T00:20:51;10.4;;;3.1;;
6561;SDS011;3314;50.890;4.722;2024-01-30T00:22:51;9.8;;;3.4;;
6561;SDS011;3314;50.890;4.722;2024-01-30T00:24:50;8.7;;;2.9;;
6561;SDS011;3314;50.890;4.722;2024-01-30T00:26:50;11.8;;;3.2;;
6561;SDS011;3314;50.890;4.722;2024-01-30T00:28:50;13.9;;;3.9;;
6561;SDS011;3314;50.890;4.722;2024-01-30T00:30:49;10.7;;;3.8;;
6561;SDS011;3314;50.890;4.722;2024-01-30T00:32:49;10.8;;;3.6;;
6561;SDS011;3314;50.890;4.722;2024-01-30T00:34:49;10.8;;;3.4;;
6561;SDS011;3314;50.890;4.722;2024-01-30T00:36:48;9.4;;;3.6;;
6561;SDS011;3314;50.890;4.722;2024-01-30T00:38:48;10.5;;;3.4;;
6561;SDS011;3314;50.890;4.722;2024-01-30T00:40:48;10.1;;;3.0;;
6561;SDS011;3314;50.890;4.722;2024-01-30T00:42:47;10.0;;;3.2;;
6561;SDS011;3314;50.890;4.722;2024-01-30T00:44:47;9.3;;;3.0;;
6561;SDS011;3314;50.890;4.722;2024-01-30T00:46:47;12.5;;;3.2;;
6561;SDS011;3314;50.890;4.722;2024-01-30T00:48:46;11.1;;;3.0;;
6561;SDS011;3314;50.890;4.722;2024-01-30T00:50:46;10.6;;;3.4;;
6561;SDS011;3314;50.890;4.722;2024-01-30T00:52:46;9.4;;;3.7;;
6561;SDS011;3314;50.890;4.722;2024-01-30T00:54:46;11.3;;;3.6;;
6561;SDS011;3314;50.890;4.722;2024-01-30T00:56:46;11.6;;;3.3;;
6561;SDS011;3314;50.890;4.722;2024-01-30T00:58:46;12.0;;;3.8;;
6561;SDS011;3314;50.890;4.722;2024-01-30T01:00:45;14.2;;;3.0;;
6561;SDS011;3314;50.890;4.722;2024-01-30T01:02:45;10.2;;;3.2;;
6561;SDS011;3314;50.890;4.722;2024-01-30T01:04:45;10.9;;;3.1;;
6561;SDS011;3314;50.890;4.722;2024-01-30T01:06:44;10.6;;;3.4;;
6561;SDS011;3314;50.890;4.722;2024-01-30T01:08:44;9.1;;;2.7;;
6561;SDS011;3314;50.890;4.722;2024-01-30T01:10:44;10.1;;;2.9;;
6561;SDS011;3314;50.890;4.722;2024-01-30T01:12:43;9.7;;;2.6;;
6561;SDS011;3314;50.890;4.722;2024-01-30T01:14:43;9.7;;;3.1;;
6561;SDS011;3314;50.890;4.722;2024-01-30T01:16:43;10.0;;;2.9;;
6561;SDS011;3314;50.890;4.722;2024-01-30T01:18:42;11.5;;;3.2;;
6561;SDS011;3314;50.890;4.722;2024-01-30T01:20:42;11.3;;;3.5;;
6561;SDS011;3314;50.890;4.722;2024-01-30T01:22:42;10.6;;;3.5;;
6561;SDS011;3314;50.890;4.722;2024-01-30T01:24:41;8.6;;;2.8;;
6561;SDS011;3314;50.890;4.722;2024-01-30T01:26:41;9.6;;;3.1;;
6561;SDS011;3314;50.890;4.722;2024-01-30T01:28:41;9.2;;;2.9;;
6561;SDS011;3314;50.890;4.722;2024-01-30T01:30:41;11.2;;;2.9;;
6561;SDS011;3314;50.890;4.722;2024-01-30T01:32:45;12.5;;;3.1;;
6561;SDS011;3314;50.890;4.722;2024-01-30T01:34:32;14.6;;;3.5;;
6561;SDS011;3314;50.890;4.722;2024-01-30T01:36:32;9.7;;;3.6;;
6561;SDS011;3314;50.890;4.722;2024-01-30T01:38:32;10.5;;;3.0;;
6561;SDS011;3314;50.890;4.722;2024-01-30T01:40:31;12.8;;;3.9;;
6561;SDS011;3314;50.890;4.722;2024-01-30T01:42:31;9.2;;;2.8;;
6561;SDS011;3314;50.890;4.722;2024-01-30T01:44:31;13.4;;;2.9;;
6561;SDS011;3314;50.890;4.722;2024-01-30T01:46:32;12.4;;;3.3;;
6561;SDS011;3314;50.890;4.722;2024-01-30T01:48:32;13.6;;;3.6;;
6561;SDS011;3314;50.890;4.722;2024-01-30T01:50:32;11.8;;;2.8;;
6561;SDS011;3314;50.890;4.722;2024-01-30T01:52:32;11.6;;;3.4;;
6561;SDS011;3314;50.890;4.722;2024-01-30T01:54:31;11.5;;;3.5;;
6561;SDS011;3314;50.890;4.722;2024-01-30T01:56:31;10.3;;;3.1;;
6561;SDS011;3314;50.890;4.722;2024-01-30T01:58:32;14.8;;;3.3;;
6561;SDS011;3314;50.890;4.722;2024-01-30T02:00:33;13.0;;;2.8;;
6561;SDS011;3314;50.890;4.722;2024-01-30T02:02:34;11.2;;;3.1;;
6561;SDS011;3314;50.890;4.722;2024-01-30T02:04:34;11.5;;;3.0;;
6561;SDS011;3314;50.890;4.722;2024-01-30T02:06:34;12.1;;;3.4;;
6561;SDS011;3314;50.890;4.722;2024-01-30T02:08:34;9.4;;;3.1;;
6561;SDS011;3314;50.890;4.722;2024-01-30T02:12:37;12.0;;;3.4;;
6561;SDS011;3314;50.890;4.722;2024-01-30T02:14:30;13.4;;;3.7;;
6561;SDS011;3314;50.890;4.722;2024-01-30T02:16:30;12.8;;;3.1;;
6561;SDS011;3314;50.890;4.722;2024-01-30T02:18:30;13.3;;;3.5;;
6561;SDS011;3314;50.890;4.722;2024-01-30T02:20:30;10.7;;;3.3;;
6561;SDS011;3314;50.890;4.722;2024-01-30T02:22:29;8.8;;;2.8;;
6561;SDS011;3314;50.890;4.722;2024-01-30T02:24:29;11.0;;;3.1;;
6561;SDS011;3314;50.890;4.722;2024-01-30T02:26:29;8.3;;;2.6;;
6561;SDS011;3314;50.890;4.722;2024-01-30T02:28:28;10.4;;;3.0;;
6561;SDS011;3314;50.890;4.722;2024-01-30T02:30:30;11.6;;;3.0;;
6561;SDS011;3314;50.890;4.722;2024-01-30T02:32:29;9.9;;;3.0;;
6561;SDS011;3314;50.890;4.722;2024-01-30T02:34:29;9.3;;;3.0;;
6561;SDS011;3314;50.890;4.722;2024-01-30T02:36:29;10.5;;;3.5;;
6561;SDS011;3314;50.890;4.722;2024-01-30T02:38:29;12.8;;;3.3;;
6561;SDS011;3314;50.890;4.722;2024-01-30T02:40:28;10.8;;;3.0;;
6561;SDS011;3314;50.890;4.722;2024-01-30T02:42:28;12.6;;;3.2;;
6561;SDS011;3314;50.890;4.722;2024-01-30T02:44:28;11.5;;;3.5;;
6561;SDS011;3314;50.890;4.722;2024-01-30T02:46:27;10.3;;;3.2;;
6561;SDS011;3314;50.890;4.722;2024-01-30T02:48:27;10.7;;;3.0;;
6561;SDS011;3314;50.890;4.722;2024-01-30T02:50:27;9.8;;;2.9;;
6561;SDS011;3314;50.890;4.722;2024-01-30T02:52:27;14.3;;;3.0;;
6561;SDS011;3314;50.890;4.722;2024-01-30T02:54:26;11.9;;;3.1;;
6561;SDS011;3314;50.890;4.722;2024-01-30T02:56:26;11.5;;;3.0;;
6561;SDS011;3314;50.890;4.722;2024-01-30T02:58:25;14.1;;;3.6;;
6561;SDS011;3314;50.890;4.722;2024-01-30T03:00:30;11.9;;;3.6;;
6561;SDS011;3314;50.890;4.722;2024-01-30T03:02:18;12.8;;;3.4;;
6561;SDS011;3314;50.890;4.722;2024-01-30T03:04:17;13.4;;;3.6;;
6561;SDS011;3314;50.890;4.722;2024-01-30T03:06:18;9.6;;;3.5;;
6561;SDS011;3314;50.890;4.722;2024-01-30T03:08:17;11.3;;;4.1;;
6561;SDS011;3314;50.890;4.722;2024-01-30T03:10:17;11.4;;;4.7;;
6561;SDS011;3314;50.890;4.722;2024-01-30T03:12:16;13.6;;;3.7;;
6561;SDS011;3314;50.890;4.722;2024-01-30T03:14:17;13.1;;;3.9;;
6561;SDS011;3314;50.890;4.722;2024-01-30T03:16:16;14.1;;;3.7;;
6561;SDS011;3314;50.890;4.722;2024-01-30T03:18:16;10.5;;;3.7;;
6561;SDS011;3314;50.890;4.722;2024-01-30T03:20:16;13.1;;;3.4;;
6561;SDS011;3314;50.890;4.722;2024-01-30T03:22:16;14.0;;;4.2;;
6561;SDS011;3314;50.890;4.722;2024-01-30T03:24:36;13.9;;;4.1;;
6561;SDS011;3314;50.890;4.722;2024-01-30T03:26:15;13.2;;;3.7;;
6561;SDS011;3314;50.890;4.722;2024-01-30T03:28:14;14.7;;;4.4;;
6561;SDS011;3314;50.890;4.722;2024-01-30T03:30:14;10.0;;;3.2;;
6561;SDS011;3314;50.890;4.722;2024-01-30T03:32:14;12.1;;;3.8;;
6561;SDS011;3314;50.890;4.722;2024-01-30T03:34:14;13.2;;;3.3;;
6561;SDS011;3314;50.890;4.722;2024-01-30T03:36:14;11.9;;;4.0;;
6561;SDS011;3314;50.890;4.722;2024-01-30T03:38:14;9.6;;;3.1;;
6561;SDS011;3314;50.890;4.722;2024-01-30T03:40:14;10.4;;;3.3;;
6561;SDS011;3314;50.890;4.722;2024-01-30T03:42:13;9.8;;;3.0;;
6561;SDS011;3314;50.890;4.722;2024-01-30T03:44:13;10.8;;;3.5;;
6561;SDS011;3314;50.890;4.722;2024-01-30T03:46:13;13.1;;;3.4;;
6561;SDS011;3314;50.890;4.722;2024-01-30T03:48:12;12.9;;;3.4;;
6561;SDS011;3314;50.890;4.722;2024-01-30T03:50:12;12.4;;;3.6;;
6561;SDS011;3314;50.890;4.722;2024-01-30T03:52:12;12.1;;;3.7;;
6561;SDS011;3314;50.890;4.722;2024-01-30T03:54:12;11.9;;;3.3;;
6561;SDS011;3314;50.890;4.722;2024-01-30T03:56:12;10.1;;;3.2;;
6561;SDS011;3314;50.890;4.722;2024-01-30T03:58:11;10.2;;;2.8;;
6561;SDS011;3314;50.890;4.722;2024-01-30T04:00:12;10.2;;;3.4;;
6561;SDS011;3314;50.890;4.722;2024-01-30T04:02:12;12.1;;;3.7;;
6561;SDS011;3314;50.890;4.722;2024-01-30T04:04:11;9.8;;;3.0;;
6561;SDS011;3314;50.890;4.722;2024-01-30T04:06:11;11.4;;;3.3;;
6561;SDS011;3314;50.890;4.722;2024-01-30T04:08:11;11.2;;;4.0;;
6561;SDS011;3314;50.890;4.722;2024-01-30T04:10:11;12.1;;;3.2;;
6561;SDS011;3314;50.890;4.722;2024-01-30T04:12:11;12.4;;;3.6;;
6561;SDS011;3314;50.890;4.722;2024-01-30T04:14:10;10.8;;;3.7;;
6561;SDS011;3314;50.890;4.722;2024-01-30T04:16:18;10.6;;;3.4;;
6561;SDS011;3314;50.890;4.722;2024-01-30T04:18:06;8.8;;;2.8;;
6561;SDS011;3314;50.890;4.722;2024-01-30T04:20:06;10.1;;;3.2;;
6561;SDS011;3314;50.890;4.722;2024-01-30T04:22:06;9.7;;;3.0;;
6561;SDS011;3314;50.890;4.722;2024-01-30T04:24:05;11.0;;;3.4;;
6561;SDS011;3314;50.890;4.722;2024-01-30T04:26:05;10.3;;;3.3;;
6561;SDS011;3314;50.890;4.722;2024-01-30T04:28:05;14.3;;;4.0;;
6561;SDS011;3314;50.890;4.722;2024-01-30T04:30:05;11.0;;;3.3;;
6561;SDS011;3314;50.890;4.722;2024-01-30T04:32:05;10.7;;;3.6;;
6561;SDS011;3314;50.890;4.722;2024-01-30T04:34:05;14.3;;;4.2;;
6561;SDS011;3314;50.890;4.722;2024-01-30T04:36:08;13.3;;;3.2;;
6561;SDS011;3314;50.890;4.722;2024-01-30T04:38:07;11.6;;;3.6;;
6561;SDS011;3314;50.890;4.722;2024-01-30T04:40:07;13.3;;;3.7;;
6561;SDS011;3314;50.890;4.722;2024-01-30T04:42:07;12.4;;;3.4;;
6561;SDS011;3314;50.890;4.722;2024-01-30T04:44:07;13.4;;;4.0;;
6561;SDS011;3314;50.890;4.722;2024-01-30T04:46:06;12.7;;;3.6;;
6561;SDS011;3314;50.890;4.722;2024-01-30T04:48:06;9.8;;;3.5;;
6561;SDS011;3314;50.890;4.722;2024-01-30T04:50:06;9.7;;;3.4;;
6561;SDS011;3314;50.890;4.722;2024-01-30T04:52:07;10.9;;;3.4;;
6561;SDS011;3314;50.890;4.722;2024-01-30T04:54:07;10.8;;;3.3;;
6561;SDS011;3314;50.890;4.722;2024-01-30T04:56:06;12.0;;;3.6;;
6561;SDS011;3314;50.890;4.722;2024-01-30T04:58:06;14.5;;;4.1;;
6561;SDS011;3314;50.890;4.722;2024-01-30T05:00:08;14.3;;;3.8;;
6561;SDS011;3314;50.890;4.722;2024-01-30T05:02:08;12.9;;;4.1;;
6561;SDS011;3314;50.890;4.722;2024-01-30T05:04:07;11.5;;;3.6;;
6561;SDS011;3314;50.890;4.722;2024-01-30T05:06:07;10.5;;;3.0;;
6561;SDS011;3314;50.890;4.722;2024-01-30T05:08:07;10.6;;;3.3;;
6561;SDS011;3314;50.890;4.722;2024-01-30T05:10:06;10.8;;;4.0;;
6561;SDS011;3314;50.890;4.722;2024-01-30T05:12:07;12.3;;;3.7;;
6561;SDS011;3314;50.890;4.722;2024-01-30T05:13:56;12.0;;;3.4;;
6561;SDS011;3314;50.890;4.722;2024-01-30T05:15:56;9.5;;;3.6;;
6561;SDS011;3314;50.890;4.722;2024-01-30T05:17:56;13.4;;;3.8;;
6561;SDS011;3314;50.890;4.722;2024-01-30T05:19:56;12.3;;;3.8;;
6561;SDS011;3314;50.890;4.722;2024-01-30T05:21:55;11.8;;;3.7;;
6561;SDS011;3314;50.890;4.722;2024-01-30T05:23:55;10.7;;;3.9;;
6561;SDS011;3314;50.890;4.722;2024-01-30T05:25:54;12.0;;;3.7;;
6561;SDS011;3314;50.890;4.722;2024-01-30T05:27:55;12.2;;;4.1;;
6561;SDS011;3314;50.890;4.722;2024-01-30T05:29:55;12.8;;;3.6;;
6561;SDS011;3314;50.890;4.722;2024-01-30T05:31:55;16.0;;;3.5;;
6561;SDS011;3314;50.890;4.722;2024-01-30T05:33:54;13.3;;;3.9;;
6561;SDS011;3314;50.890;4.722;2024-01-30T05:35:55;10.7;;;3.8;;
6561;SDS011;3314;50.890;4.722;2024-01-30T05:37:54;13.6;;;3.4;;
6561;SDS011;3314;50.890;4.722;2024-01-30T05:39:54;11.8;;;3.3;;
6561;SDS011;3314;50.890;4.722;2024-01-30T05:41:54;10.3;;;3.6;;
6561;SDS011;3314;50.890;4.722;2024-01-30T05:43:54;11.0;;;3.9;;
6561;SDS011;3314;50.890;4.722;2024-01-30T05:45:54;11.1;;;3.3;;
6561;SDS011;3314;50.890;4.722;2024-01-30T05:47:53;12.5;;;4.0;;
6561;SDS011;3314;50.890;4.722;2024-01-30T05:49:53;12.2;;;3.7;;
6561;SDS011;3314;50.890;4.722;2024-01-30T05:51:53;10.0;;;3.6;;
6561;SDS011;3314;50.890;4.722;2024-01-30T05:53:52;12.1;;;3.3;;
6561;SDS011;3314;50.890;4.722;2024-01-30T05:55:52;14.0;;;4.0;;
6561;SDS011;3314;50.890;4.722;2024-01-30T05:57:52;11.7;;;3.7;;
6561;SDS011;3314;50.890;4.722;2024-01-30T05:59:52;11.2;;;3.5;;
6561;SDS011;3314;50.890;4.722;2024-01-30T06:01:52;10.9;;;3.2;;
6561;SDS011;3314;50.890;4.722;2024-01-30T06:03:52;13.1;;;3.6;;
6561;SDS011;3314;50.890;4.722;2024-01-30T06:05:51;14.0;;;4.2;;
6561;SDS011;3314;50.890;4.722;2024-01-30T06:07:51;13.9;;;3.7;;
6561;SDS011;3314;50.890;4.722;2024-01-30T06:09:50;11.2;;;3.9;;
6561;SDS011;3314;50.890;4.722;2024-01-30T06:11:50;9.9;;;3.3;;
6561;SDS011;3314;50.890;4.722;2024-01-30T06:13:50;10.4;;;3.4;;
6561;SDS011;3314;50.890;4.722;2024-01-30T06:15:49;11.8;;;3.3;;
6561;SDS011;3314;50.890;4.722;2024-01-30T06:17:49;11.9;;;3.5;;
6561;SDS011;3314;50.890;4.722;2024-01-30T06:19:49;11.1;;;3.8;;
6561;SDS011;3314;50.890;4.722;2024-01-30T06:21:48;9.7;;;3.6;;
6561;SDS011;3314;50.890;4.722;2024-01-30T06:23:48;12.0;;;3.6;;
6561;SDS011;3314;50.890;4.722;2024-01-30T06:25:48;10.8;;;3.6;;
6561;SDS011;3314;50.890;4.722;2024-01-30T06:27:47;10.6;;;3.7;;
6561;SDS011;3314;50.890;4.722;2024-01-30T06:29:47;11.3;;;3.8;;
6561;SDS011;3314;50.890;4.722;2024-01-30T06:31:47;10.6;;;3.8;;
6561;SDS011;3314;50.890;4.722;2024-01-30T06:33:47;14.2;;;3.6;;
6561;SDS011;3314;50.890;4.722;2024-01-30T06:35:47;11.8;;;3.4;;
6561;SDS011;3314;50.890;4.722;2024-01-30T06:37:46;13.3;;;3.3;;
6561;SDS011;3314;50.890;4.722;2024-01-30T06:39:46;12.6;;;4.0;;
6561;SDS011;3314;50.890;4.722;2024-01-30T06:41:46;10.2;;;3.8;;
6561;SDS011;3314;50.890;4.722;2024-01-30T06:43:46;13.2;;;3.6;;
6561;SDS011;3314;50.890;4.722;2024-01-30T06:45:46;11.4;;;3.7;;
6561;SDS011;3314;50.890;4.722;2024-01-30T06:47:46;13.0;;;4.5;;
6561;SDS011;3314;50.890;4.722;2024-01-30T06:49:46;11.6;;;3.9;;
6561;SDS011;3314;50.890;4.722;2024-01-30T06:51:49;12.2;;;3.8;;
6561;SDS011;3314;50.890;4.722;2024-01-30T06:53:51;16.2;;;3.7;;
6561;SDS011;3314;50.890;4.722;2024-01-30T06:55:44;12.6;;;4.0;;
6561;SDS011;3314;50.890;4.722;2024-01-30T06:57:44;19.0;;;4.6;;
6561;SDS011;3314;50.890;4.722;2024-01-30T06:59:45;11.1;;;3.4;;
6561;SDS011;3314;50.890;4.722;2024-01-30T07:01:49;11.1;;;4.2;;
6561;SDS011;3314;50.890;4.722;2024-01-30T07:03:51;14.4;;;4.8;;
6561;SDS011;3314;50.890;4.722;2024-01-30T07:05:41;12.9;;;4.4;;
6561;SDS011;3314;50.890;4.722;2024-01-30T07:07:43;13.0;;;4.2;;
6561;SDS011;3314;50.890;4.722;2024-01-30T07:09:45;15.5;;;4.5;;
6561;SDS011;3314;50.890;4.722;2024-01-30T07:11:50;12.3;;;4.2;;
6561;SDS011;3314;50.890;4.722;2024-01-30T07:13:40;13.8;;;4.3;;
6561;SDS011;3314;50.890;4.722;2024-01-30T07:15:44;12.9;;;4.3;;
6561;SDS011;3314;50.890;4.722;2024-01-30T07:17:49;12.1;;;4.3;;
6561;SDS011;3314;50.890;4.722;2024-01-30T07:19:41;13.4;;;4.7;;
6561;SDS011;3314;50.890;4.722;2024-01-30T07:21:46;15.1;;;4.7;;
6561;SDS011;3314;50.890;4.722;2024-01-30T07:23:43;16.7;;;4.9;;
6561;SDS011;3314;50.890;4.722;2024-01-30T07:25:46;15.1;;;4.7;;
6561;SDS011;3314;50.890;4.722;2024-01-30T07:27:37;13.8;;;4.1;;
6561;SDS011;3314;50.890;4.722;2024-01-30T07:29:36;19.4;;;5.0;;
6561;SDS011;3314;50.890;4.722;2024-01-30T07:31:43;18.7;;;4.4;;
6561;SDS011;3314;50.890;4.722;2024-01-30T07:33:46;15.4;;;4.7;;
6561;SDS011;3314;50.890;4.722;2024-01-30T07:35:36;17.9;;;4.9;;
6561;SDS011;3314;50.890;4.722;2024-01-30T07:37:43;14.6;;;4.6;;
6561;SDS011;3314;50.890;4.722;2024-01-30T07:39:34;13.7;;;5.2;;
6561;SDS011;3314;50.890;4.722;2024-01-30T07:41:38;13.2;;;4.2;;
6561;SDS011;3314;50.890;4.722;2024-01-30T07:43:42;14.6;;;4.7;;
6561;SDS011;3314;50.890;4.722;2024-01-30T07:45:38;11.4;;;4.3;;
6561;SDS011;3314;50.890;4.722;2024-01-30T07:47:43;12.0;;;4.1;;
6561;SDS011;3314;50.890;4.722;2024-01-30T07:49:33;17.4;;;4.7;;
6561;SDS011;3314;50.890;4.722;2024-01-30T07:51:33;16.4;;;4.6;;
6561;SDS011;3314;50.890;4.722;2024-01-30T07:53:33;12.6;;;4.1;;
6561;SDS011;3314;50.890;4.722;2024-01-30T07:55:39;17.5;;;5.1;;
6561;SDS011;3314;50.890;4.722;2024-01-30T07:57:43;12.8;;;4.4;;
6561;SDS011;3314;50.890;4.722;2024-01-30T07:59:35;11.7;;;4.4;;
6561;SDS011;3314;50.890;4.722;2024-01-30T08:01:40;13.4;;;4.2;;
6561;SDS011;3314;50.890;4.722;2024-01-30T08:03:34;14.7;;;4.0;;
6561;SDS011;3314;50.890;4.722;2024-01-30T08:05:40;13.4;;;4.4;;
6561;SDS011;3314;50.890;4.722;2024-01-30T08:07:33;14.0;;;4.2;;
6561;SDS011;3314;50.890;4.722;2024-01-30T08:09:38;17.3;;;4.1;;
6561;SDS011;3314;50.890;4.722;2024-01-30T08:11:42;12.5;;;4.7;;
6561;SDS011;3314;50.890;4.722;2024-01-30T08:13:32;13.7;;;4.6;;
6561;SDS011;3314;50.890;4.722;2024-01-30T08:15:34;14.5;;;4.1;;
6561;SDS011;3314;50.890;4.722;2024-01-30T08:17:33;13.1;;;4.4;;
6561;SDS011;3314;50.890;4.722;2024-01-30T08:19:38;15.9;;;4.6;;
6561;SDS011;3314;50.890;4.722;2024-01-30T08:21:27;13.6;;;3.9;;
6561;SDS011;3314;50.890;4.722;2024-01-30T08:23:27;11.2;;;4.1;;
6561;SDS011;3314;50.890;4.722;2024-01-30T08:25:31;14.5;;;4.7;;
6561;SDS011;3314;50.890;4.722;2024-01-30T08:27:35;15.1;;;4.1;;
6561;SDS011;3314;50.890;4.722;2024-01-30T08:29:36;12.3;;;4.2;;
6561;SDS011;3314;50.890;4.722;2024-01-30T08:31:30;9.9;;;4.0;;
6561;SDS011;3314;50.890;4.722;2024-01-30T08:33:34;12.8;;;4.2;;
6561;SDS011;3314;50.890;4.722;2024-01-30T08:35:39;12.6;;;3.9;;
6561;SDS011;3314;50.890;4.722;2024-01-30T08:37:27;13.5;;;4.5;;
6561;SDS011;3314;50.890;4.722;2024-01-30T08:39:27;11.4;;;3.5;;
6561;SDS011;3314;50.890;4.722;2024-01-30T08:41:26;12.7;;;3.7;;
6561;SDS011;3314;50.890;4.722;2024-01-30T08:43:26;13.6;;;4.2;;
6561;SDS011;3314;50.890;4.722;2024-01-30T08:45:31;11.9;;;4.0;;
6561;SDS011;3314;50.890;4.722;2024-01-30T08:47:36;12.1;;;4.1;;
6561;SDS011;3314;50.890;4.722;2024-01-30T08:49:25;14.9;;;4.6;;
6561;SDS011;3314;50.890;4.722;2024-01-30T08:51:29;13.7;;;4.5;;
6561;SDS011;3314;50.890;4.722;2024-01-30T08:53:34;12.4;;;4.2;;
6561;SDS011;3314;50.890;4.722;2024-01-30T08:55:26;11.6;;;3.7;;
6561;SDS011;3314;50.890;4.722;2024-01-30T08:57:29;13.6;;;4.1;;
6561;SDS011;3314;50.890;4.722;2024-01-30T08:59:34;12.9;;;3.8;;
6561;SDS011;3314;50.890;4.722;2024-01-30T09:01:28;11.4;;;4.2;;
6561;SDS011;3314;50.890;4.722;2024-01-30T09:03:32;12.4;;;4.1;;
6561;SDS011;3314;50.890;4.722;2024-01-30T09:05:25;11.6;;;4.0;;
6561;SDS011;3314;50.890;4.722;2024-01-30T09:07:25;11.0;;;4.5;;
6561;SDS011;3314;50.890;4.722;2024-01-30T09:09:26;12.5;;;4.1;;
6561;SDS011;3314;50.890;4.722;2024-01-30T09:11:26;14.7;;;4.8;;
6561;SDS011;3314;50.890;4.722;2024-01-30T09:13:31;12.6;;;4.3;;
6561;SDS011;3314;50.890;4.722;2024-01-30T09:15:23;11.4;;;4.4;;
6561;SDS011;3314;50.890;4.722;2024-01-30T09:17:26;10.2;;;3.8;;
6561;SDS011;3314;50.890;4.722;2024-01-30T09:19:26;14.5;;;4.4;;
6561;SDS011;3314;50.890;4.722;2024-01-30T09:21:30;16.7;;;4.4;;
6561;SDS011;3314;50.890;4.722;2024-01-30T09:23:23;14.2;;;4.7;;
6561;SDS011;3314;50.890;4.722;2024-01-30T09:25:23;17.0;;;4.9;;
6561;SDS011;3314;50.890;4.722;2024-01-30T09:27:27;10.1;;;3.8;;
6561;SDS011;3314;50.890;4.722;2024-01-30T09:29:21;12.9;;;3.8;;
6561;SDS011;3314;50.890;4.722;2024-01-30T09:31:25;10.1;;;3.4;;
6561;SDS011;3314;50.890;4.722;2024-01-30T09:33:26;13.6;;;4.7;;
6561;SDS011;3314;50.890;4.722;2024-01-30T09:35:18;14.6;;;4.3;;
6561;SDS011;3314;50.890;4.722;2024-01-30T09:37:23;14.2;;;4.6;;
6561;SDS011;3314;50.890;4.722;2024-01-30T09:39:24;11.7;;;4.0;;
6561;SDS011;3314;50.890;4.722;2024-01-30T09:41:25;13.6;;;4.5;;
6561;SDS011;3314;50.890;4.722;2024-01-30T09:43:16;16.3;;;4.6;;
6561;SDS011;3314;50.890;4.722;2024-01-30T09:45:20;14.4;;;4.3;;
6561;SDS011;3314;50.890;4.722;2024-01-30T09:47:22;13.2;;;4.1;;
6561;SDS011;3314;50.890;4.722;2024-01-30T09:49:22;12.9;;;4.4;;
6561;SDS011;3314;50.890;4.722;2024-01-30T09:51:25;15.2;;;4.9;;
6561;SDS011;3314;50.890;4.722;2024-01-30T09:53:16;11.8;;;4.4;;
6561;SDS011;3314;50.890;4.722;2024-01-30T09:55:15;17.8;;;4.7;;
6561;SDS011;3314;50.890;4.722;2024-01-30T09:57:16;20.6;;;4.8;;
6561;SDS011;3314;50.890;4.722;2024-01-30T09:59:16;14.0;;;4.4;;
6561;SDS011;3314;50.890;4.722;2024-01-30T10:01:19;12.7;;;5.1;;
6561;SDS011;3314;50.890;4.722;2024-01-30T10:03:19;12.0;;;3.9;;
6561;SDS011;3314;50.890;4.722;2024-01-30T10:05:21;13.6;;;4.5;;
6561;SDS011;3314;50.890;4.722;2024-01-30T10:07:18;19.1;;;4.5;;
6561;SDS011;3314;50.890;4.722;2024-01-30T10:09:18;14.5;;;4.2;;
6561;SDS011;3314;50.890;4.722;2024-01-30T10:11:18;17.3;;;5.6;;
6561;SDS011;3314;50.890;4.722;2024-01-30T10:13:18;18.1;;;5.2;;
6561;SDS011;3314;50.890;4.722;2024-01-30T10:15:17;11.3;;;4.8;;
6561;SDS011;3314;50.890;4.722;2024-01-30T10:17:17;15.5;;;4.6;;
6561;SDS011;3314;50.890;4.722;2024-01-30T10:19:17;13.4;;;4.5;;
6561;SDS011;3314;50.890;4.722;2024-01-30T10:21:16;12.4;;;4.5;;
6561;SDS011;3314;50.890;4.722;2024-01-30T10:23:16;15.1;;;5.0;;
6561;SDS011;3314;50.890;4.722;2024-01-30T10:25:17;15.8;;;5.0;;
6561;SDS011;3314;50.890;4.722;2024-01-30T10:27:16;13.7;;;4.6;;
6561;SDS011;3314;50.890;4.722;2024-01-30T10:29:16;17.7;;;5.5;;
6561;SDS011;3314;50.890;4.722;2024-01-30T10:31:16;15.0;;;5.4;;
6561;SDS011;3314;50.890;4.722;2024-01-30T10:33:06;12.9;;;5.2;;
6561;SDS011;3314;50.890;4.722;2024-01-30T10:35:06;17.3;;;4.8;;
6561;SDS011;3314;50.890;4.722;2024-01-30T10:37:07;13.4;;;4.7;;
6561;SDS011;3314;50.890;4.722;2024-01-30T10:39:09;16.1;;;5.1;;
6561;SDS011;3314;50.890;4.722;2024-01-30T10:41:08;17.9;;;6.1;;
6561;SDS011;3314;50.890;4.722;2024-01-30T10:43:10;15.2;;;5.8;;
6561;SDS011;3314;50.890;4.722;2024-01-30T10:45:13;13.8;;;4.9;;
6561;SDS011;3314;50.890;4.722;2024-01-30T10:47:13;16.8;;;5.4;;
6561;SDS011;3314;50.890;4.722;2024-01-30T10:49:04;21.6;;;6.3;;
6561;SDS011;3314;50.890;4.722;2024-01-30T10:51:04;19.0;;;5.9;;
6561;SDS011;3314;50.890;4.722;2024-01-30T10:53:04;16.6;;;5.9;;
6561;SDS011;3314;50.890;4.722;2024-01-30T10:55:05;15.1;;;5.5;;
6561;SDS011;3314;50.890;4.722;2024-01-30T10:57:06;14.0;;;5.8;;
6561;SDS011;3314;50.890;4.722;2024-01-30T10:59:07;15.3;;;6.0;;
6561;SDS011;3314;50.890;4.722;2024-01-30T11:01:07;16.9;;;5.9;;
6561;SDS011;3314;50.890;4.722;2024-01-30T11:03:08;14.1;;;5.9;;
6561;SDS011;3314;50.890;4.722;2024-01-30T11:05:09;18.6;;;5.9;;
6561;SDS011;3314;50.890;4.722;2024-01-30T11:07:16;13.5;;;5.5;;
6561;SDS011;3314;50.890;4.722;2024-01-30T11:09:10;15.9;;;5.7;;
6561;SDS011;3314;50.890;4.722;2024-01-30T11:11:10;15.8;;;5.5;;
6561;SDS011;3314;50.890;4.722;2024-01-30T11:13:10;13.6;;;4.7;;
6561;SDS011;3314;50.890;4.722;2024-01-30T11:15:10;14.8;;;4.6;;
6561;SDS011;3314;50.890;4.722;2024-01-30T11:17:00;15.3;;;5.2;;
6561;SDS011;3314;50.890;4.722;2024-01-30T11:19:00;12.2;;;4.7;;
6561;SDS011;3314;50.890;4.722;2024-01-30T11:21:04;13.9;;;4.7;;
6561;SDS011;3314;50.890;4.722;2024-01-30T11:23:06;15.3;;;3.4;;
6561;SDS011;3314;50.890;4.722;2024-01-30T11:25:06;14.6;;;4.7;;
6561;SDS011;3314;50.890;4.722;2024-01-30T11:27:08;13.1;;;5.3;;
6561;SDS011;3314;50.890;4.722;2024-01-30T11:28:58;14.1;;;4.6;;
6561;SDS011;3314;50.890;4.722;2024-01-30T11:31:02;12.2;;;5.2;;
6561;SDS011;3314;50.890;4.722;2024-01-30T11:33:05;11.5;;;3.5;;
6561;SDS011;3314;50.890;4.722;2024-01-30T11:35:06;14.0;;;3.5;;
6561;SDS011;3314;50.890;4.722;2024-01-30T11:37:09;13.0;;;4.3;;
6561;SDS011;3314;50.890;4.722;2024-01-30T11:38:59;10.3;;;3.3;;
6561;SDS011;3314;50.890;4.722;2024-01-30T11:40:58;11.9;;;3.7;;
6561;SDS011;3314;50.890;4.722;2024-01-30T11:43:00;12.8;;;3.7;;
6561;SDS011;3314;50.890;4.722;2024-01-30T11:45:00;11.7;;;3.3;;
6561;SDS011;3314;50.890;4.722;2024-01-30T11:46:59;11.0;;;3.7;;
6561;SDS011;3314;50.890;4.722;2024-01-30T11:48:59;12.3;;;3.2;;
6561;SDS011;3314;50.890;4.722;2024-01-30T11:50:59;11.9;;;3.5;;
6561;SDS011;3314;50.890;4.722;2024-01-30T11:52:59;13.0;;;3.2;;
6561;SDS011;3314;50.890;4.722;2024-01-30T11:54:58;12.5;;;3.3;;
6561;SDS011;3314;50.890;4.722;2024-01-30T11:57:01;7.2;;;2.3;;
6561;SDS011;3314;50.890;4.722;2024-01-30T11:59:01;12.7;;;2.4;;
6561;SDS011;3314;50.890;4.722;2024-01-30T12:01:02;13.7;;;2.6;;
6561;SDS011;3314;50.890;4.722;2024-01-30T12:03:05;9.6;;;1.9;;
6561;SDS011;3314;50.890;4.722;2024-01-30T12:04:55;7.6;;;2.1;;
6561;SDS011;3314;50.890;4.722;2024-01-30T12:06:56;11.2;;;2.2;;
6561;SDS011;3314;50.890;4.722;2024-01-30T12:08:59;9.2;;;1.8;;
6561;SDS011;3314;50.890;4.722;2024-01-30T12:10:59;8.1;;;2.2;;
6561;SDS011;3314;50.890;4.722;2024-01-30T12:12:59;9.9;;;2.1;;
6561;SDS011;3314;50.890;4.722;2024-01-30T12:14:59;11.6;;;2.1;;
6561;SDS011;3314;50.890;4.722;2024-01-30T12:16:58;7.6;;;1.3;;
6561;SDS011;3314;50.890;4.722;2024-01-30T12:18:59;9.6;;;2.0;;
6561;SDS011;3314;50.890;4.722;2024-01-30T12:21:04;9.5;;;2.0;;
6561;SDS011;3314;50.890;4.722;2024-01-30T12:22:54;11.2;;;1.7;;
6561;SDS011;3314;50.890;4.722;2024-01-30T12:24:54;7.8;;;1.1;;
6561;SDS011;3314;50.890;4.722;2024-01-30T12:27:01;10.0;;;1.5;;
6561;SDS011;3314;50.890;4.722;2024-01-30T12:28:50;7.9;;;0.9;;
6561;SDS011;3314;50.890;4.722;2024-01-30T12:30:55;5.6;;;0.8;;
6561;SDS011;3314;50.890;4.722;2024-01-30T12:32:54;8.3;;;1.1;;
6561;SDS011;3314;50.890;4.722;2024-01-30T12:34:55;5.7;;;0.6;;
6561;SDS011;3314;50.890;4.722;2024-01-30T12:37:00;5.6;;;0.8;;
6561;SDS011;3314;50.890;4.722;2024-01-30T12:38:49;6.2;;;1.1;;